Time;durP1;ratioP1;P1;durP2;ratioP2;P2;SDS_P1;SDS_P2;PMS_P1;PMS_P2;Temp;Humidity;BMP_temperature;BMP_pressure;BME280_temperature;BME280_humidity;BME280_pressure;Samples;Min_cycle;Max_cycle;Signal;HPM_P1;HPM_P2
2023/10/16 00:01:03;;;;;;;;;;;;;;;;;;2074648;28;19941;-78
2023/10/16 00:02:22;;;;;;;;;;;;;;;;;;2075414;28;19960;-78
2023/10/16 00:03:41;;;;;;;;;;;;;;;;;;2077901;28;20368;-79
2023/10/16 00:05:08;;;;;;;;;;;;;;;;;;2074754;28;19905;-79
2023/10/16 00:06:28;;;;;;;;;;;;;;;;;;2077961;28;19944;-78
2023/10/16 00:07:50;;;;;;;;;;;;;;;;;;2080419;28;19905;-78
2023/10/16 00:09:15;;;;;;;;;;;;;;;;;;2079841;28;19905;-78
2023/10/16 00:10:34;;;;;;;;;;;;;;;;;;2079114;28;20317;-78
2023/10/16 00:11:52;;;;;;;;;;;;;;;;;;2075430;28;19909;-78
2023/10/16 00:13:11;;;;;;;;;;;;;;;;;;2076898;28;19904;-78
2023/10/16 00:14:31;;;;;;;;;;;;;;;;;;2076159;28;19913;-79
2023/10/16 00:15:50;;;;;;;;;;;;;;;;;;2080950;28;19913;-78
2023/10/16 00:17:09;;;;;;;;;;;;;;;;;;2074276;28;19913;-78
2023/10/16 00:18:33;;;;;;;;;;;;;;;;;;2074456;28;19905;-78
2023/10/16 00:19:54;;;;;;;;;;;;;;;;;;2077556;28;19905;-78
2023/10/16 00:21:13;;;;;;;;;;;;;;;;;;2074244;28;19913;-79
2023/10/16 00:22:32;;;;;;;;;;;;;;;;;;2073631;28;19913;-78
2023/10/16 00:23:51;;;;;;;;;;;;;;;;;;2076799;28;19913;-79
2023/10/16 00:25:10;;;;;;;;;;;;;;;;;;2079990;28;19909;-78
2023/10/16 00:26:30;;;;;;;;;;;;;;;;;;2080630;28;19909;-78
2023/10/16 00:27:48;;;;;;;;;;;;;;;;;;2081428;28;19904;-78
2023/10/16 00:29:17;;;;;;;;;;;;;;;;;;2075608;28;19914;-78
2023/10/16 00:30:35;;;;;;;;;;;;;;;;;;2072719;28;19922;-78
2023/10/16 00:31:58;;;;;;;;;;;;;;;;;;2076479;28;19905;-79
2023/10/16 00:33:17;;;;;;;;;;;;;;;;;;2072697;28;20480;-78
2023/10/16 00:34:37;;;;;;;;;;;;;;;;;;2072094;28;20383;-79
2023/10/16 00:35:56;;;;;;;;;;;;;;;;;;2076826;28;19913;-78
2023/10/16 00:37:15;;;;;;;;;;;;;;;;;;2080560;28;19913;-79
2023/10/16 00:38:37;;;;;;;;;;;;;;;;;;2073389;28;20316;-78
2023/10/16 00:39:56;;;;;;;;;;;;;;;;;;2076361;28;19905;-78
2023/10/16 00:42:34;;;;;;;;;;;;;;;;;;2078893;28;20341;-78
2023/10/16 00:43:53;;;;;;;;;;;;;;;;;;2074977;28;19905;-78
2023/10/16 00:45:11;;;;;;;;;;;;;;;;;;2077849;28;20347;-78
2023/10/16 00:46:32;;;;;;;;;;;;;;;;;;2075417;28;20311;-79
2023/10/16 00:47:52;;;;;;;;;;;;;;;;;;2074402;28;19948;-78
2023/10/16 00:49:14;;;;;;;;;;;;;;;;;;2081433;28;19905;-79
2023/10/16 00:50:34;;;;;;;;;;;;;;;;;;2090879;28;19944;-80
2023/10/16 00:51:53;;;;;;;;;;;;;;;;;;2085036;28;19913;-80
2023/10/16 00:53:12;;;;;;;;;;;;;;;;;;2085652;28;19909;-80
2023/10/16 00:54:31;;;;;;;;;;;;;;;;;;2088802;28;19945;-78
2023/10/16 00:55:49;;;;;;;;;;;;;;;;;;2082067;28;19889;-79
2023/10/16 00:57:08;;;;;;;;;;;;;;;;;;2077179;28;19905;-78
2023/10/16 00:58:29;;;;;;;;;;;;;;;;;;2085585;28;19972;-78
2023/10/16 00:59:48;;;;;;;;;;;;;;;;;;2087601;28;19905;-79
2023/10/16 01:01:12;;;;;;;;;;;;;;;;;;2082954;28;19937;-78
2023/10/16 01:02:32;;;;;;;;;;;;;;;;;;2077856;28;19905;-79
2023/10/16 01:03:52;;;;;;;;;;;;;;;;;;2075922;28;19905;-79
2023/10/16 01:05:11;;;;;;;;;;;;;;;;;;2073697;28;19905;-79
2023/10/16 01:06:41;;;;;;;;;;;;;;;;;;2072812;28;19905;-79
2023/10/16 01:07:59;;;;;;;;;;;;;;;;;;2080225;28;19913;-78
2023/10/16 01:09:24;;;;;;;;;;;;;;;;;;2075540;28;19909;-77
2023/10/16 01:10:48;;;;;;;;;;;;;;;;;;2081444;28;19945;-80
2023/10/16 01:12:07;;;;;;;;;;;;;;;;;;2088799;28;19904;-79
2023/10/16 01:13:28;;;;;;;;;;;;;;;;;;2080998;28;19909;-78
2023/10/16 01:14:47;;;;;;;;;;;;;;;;;;2081747;28;19987;-79
2023/10/16 01:16:07;;;;;;;;;;;;;;;;;;2076714;28;19956;-79
2023/10/16 01:17:29;;;;;;;;;;;;;;;;;;2078573;28;20372;-78
2023/10/16 01:18:48;;;;;;;;;;;;;;;;;;2068002;28;19905;-78
2023/10/16 01:20:07;;;;;;;;;;;;;;;;;;2080444;28;19948;-77
2023/10/16 01:21:26;;;;;;;;;;;;;;;;;;2076150;28;19921;-77
2023/10/16 01:22:47;;;;;;;;;;;;;;;;;;2069623;28;19960;-81
2023/10/16 01:24:12;;;;;;;;;;;;;;;;;;2070204;28;19909;-79
2023/10/16 01:25:32;;;;;;;;;;;;;;;;;;2073789;28;20031;-78
2023/10/16 01:26:51;;;;;;;;;;;;;;;;;;2073188;28;19905;-78
2023/10/16 01:28:10;;;;;;;;;;;;;;;;;;2078596;28;19905;-77
2023/10/16 01:29:31;;;;;;;;;;;;;;;;;;2074235;28;19909;-78
2023/10/16 01:30:49;;;;;;;;;;;;;;;;;;2077530;28;19921;-77
2023/10/16 01:32:08;;;;;;;;;;;;;;;;;;2076099;28;19906;-80
2023/10/16 01:33:30;;;;;;;;;;;;;;;;;;2078362;28;19905;-77
2023/10/16 01:34:50;;;;;;;;;;;;;;;;;;2077254;28;19905;-78
2023/10/16 01:36:10;;;;;;;;;;;;;;;;;;2079632;28;20350;-79
2023/10/16 01:37:32;;;;;;;;;;;;;;;;;;2077135;28;20378;-77
2023/10/16 01:38:51;;;;;;;;;;;;;;;;;;2068992;28;20386;-78
2023/10/16 01:40:17;;;;;;;;;;;;;;;;;;2075539;28;19909;-79
2023/10/16 01:41:39;;;;;;;;;;;;;;;;;;2068295;28;19913;-78
2023/10/16 01:42:57;;;;;;;;;;;;;;;;;;2075007;28;19909;-77
2023/10/16 01:44:18;;;;;;;;;;;;;;;;;;2071756;28;19914;-79
2023/10/16 01:45:39;;;;;;;;;;;;;;;;;;2068545;28;19905;-79
2023/10/16 01:46:58;;;;;;;;;;;;;;;;;;2074924;28;21268;-79
2023/10/16 01:48:20;;;;;;;;;;;;;;;;;;2075114;28;19909;-79
2023/10/16 01:49:39;;;;;;;;;;;;;;;;;;2066886;28;19914;-79
2023/10/16 01:51:00;;;;;;;;;;;;;;;;;;2067739;28;20156;-79
2023/10/16 01:52:19;;;;;;;;;;;;;;;;;;2076873;28;19905;-78
2023/10/16 01:53:42;;;;;;;;;;;;;;;;;;2072871;28;19909;-78
2023/10/16 01:55:03;;;;;;;;;;;;;;;;;;2073886;28;20280;-77
2023/10/16 01:56:22;;;;;;;;;;;;;;;;;;2079752;28;19909;-78
2023/10/16 01:57:40;;;;;;;;;;;;;;;;;;2074841;28;19906;-78
2023/10/16 01:59:01;;;;;;;;;;;;;;;;;;2072900;28;19928;-78
2023/10/16 02:00:26;;;;;;;;;;;;;;;;;;2077102;28;19913;-78
2023/10/16 02:01:45;;;;;;;;;;;;;;;;;;2079381;28;19952;-79
2023/10/16 02:03:08;;;;;;;;;;;;;;;;;;2076991;28;20362;-78
2023/10/16 02:04:27;;;;;;;;;;;;;;;;;;2078771;28;19913;-78
2023/10/16 02:05:46;;;;;;;;;;;;;;;;;;2080133;28;19909;-78
2023/10/16 02:07:06;;;;;;;;;;;;;;;;;;2073608;28;19948;-78
2023/10/16 02:08:25;;;;;;;;;;;;;;;;;;2075568;28;19909;-78
2023/10/16 02:09:45;;;;;;;;;;;;;;;;;;2082125;28;19905;-78
2023/10/16 02:11:03;;;;;;;;;;;;;;;;;;2073639;28;19917;-77
2023/10/16 02:12:22;;;;;;;;;;;;;;;;;;2071907;28;19905;-78
2023/10/16 02:13:41;;;;;;;;;;;;;;;;;;2077106;28;19913;-78
2023/10/16 02:15:05;;;;;;;;;;;;;;;;;;2074761;28;20346;-78
2023/10/16 02:16:26;;;;;;;;;;;;;;;;;;2068807;28;19913;-78
2023/10/16 02:17:46;;;;;;;;;;;;;;;;;;2070218;28;20498;-79
2023/10/16 02:19:05;;;;;;;;;;;;;;;;;;2076833;28;19905;-79
2023/10/16 02:20:26;;;;;;;;;;;;;;;;;;2075578;28;19908;-78
2023/10/16 02:21:46;;;;;;;;;;;;;;;;;;2078522;28;20402;-78
2023/10/16 02:23:07;;;;;;;;;;;;;;;;;;2071397;28;19918;-79
2023/10/16 02:24:25;;;;;;;;;;;;;;;;;;2069944;28;19905;-78
2023/10/16 02:25:45;;;;;;;;;;;;;;;;;;2072589;28;19905;-77
2023/10/16 02:27:09;;;;;;;;;;;;;;;;;;2078449;28;20411;-78
2023/10/16 02:28:31;;;;;;;;;;;;;;;;;;2074679;28;19905;-78
2023/10/16 02:29:52;;;;;;;;;;;;;;;;;;2076070;28;19913;-78
2023/10/16 02:31:13;;;;;;;;;;;;;;;;;;2079151;28;19909;-78
2023/10/16 02:32:32;;;;;;;;;;;;;;;;;;2073237;28;20410;-78
2023/10/16 02:33:53;;;;;;;;;;;;;;;;;;2074411;28;19939;-79
2023/10/16 02:35:15;;;;;;;;;;;;;;;;;;2077190;28;19913;-78
2023/10/16 02:36:34;;;;;;;;;;;;;;;;;;2078761;28;19986;-78
2023/10/16 02:37:57;;;;;;;;;;;;;;;;;;2081473;28;20258;-78
2023/10/16 02:39:35;;;;;;;;;;;;;;;;;;2081560;28;19916;-78
2023/10/16 02:40:53;;;;;;;;;;;;;;;;;;2074924;28;19905;-78
2023/10/16 02:42:14;;;;;;;;;;;;;;;;;;2078958;28;19905;-79
2023/10/16 02:43:41;;;;;;;;;;;;;;;;;;2074426;28;19913;-79
2023/10/16 02:45:00;;;;;;;;;;;;;;;;;;2072581;28;20576;-78
2023/10/16 02:46:21;;;;;;;;;;;;;;;;;;2078778;28;19913;-78
2023/10/16 02:47:40;;;;;;;;;;;;;;;;;;2081140;28;19905;-79
2023/10/16 02:48:59;;;;;;;;;;;;;;;;;;2074493;28;20294;-79
2023/10/16 02:50:18;;;;;;;;;;;;;;;;;;2069441;28;19905;-79
2023/10/16 02:51:37;;;;;;;;;;;;;;;;;;2066519;28;19913;-80
2023/10/16 02:52:56;;;;;;;;;;;;;;;;;;2077675;28;19912;-79
2023/10/16 02:54:15;;;;;;;;;;;;;;;;;;2080359;28;20004;-79
2023/10/16 02:55:34;;;;;;;;;;;;;;;;;;2081620;28;20270;-79
2023/10/16 02:56:59;;;;;;;;;;;;;;;;;;2079676;28;20001;-78
2023/10/16 02:58:18;;;;;;;;;;;;;;;;;;2074474;28;20076;-79
2023/10/16 02:59:38;;;;;;;;;;;;;;;;;;2074553;28;20317;-79
2023/10/16 03:00:57;;;;;;;;;;;;;;;;;;2076609;28;20350;-78
2023/10/16 03:02:22;;;;;;;;;;;;;;;;;;2075329;28;19949;-78
2023/10/16 03:03:43;;;;;;;;;;;;;;;;;;2077699;28;19944;-79
2023/10/16 03:05:11;;;;;;;;;;;;;;;;;;2075453;28;19905;-78
2023/10/16 03:06:31;;;;;;;;;;;;;;;;;;2079664;28;19905;-78
2023/10/16 03:07:50;;;;;;;;;;;;;;;;;;2079972;28;19909;-79
2023/10/16 03:09:28;;;;;;;;;;;;;;;;;;2079854;28;19913;-78
2023/10/16 03:10:47;;;;;;;;;;;;;;;;;;2080412;28;19913;-79
2023/10/16 03:12:10;;;;;;;;;;;;;;;;;;2078603;28;19909;-78
2023/10/16 03:13:28;;;;;;;;;;;;;;;;;;2073849;28;19905;-79
2023/10/16 03:14:56;;;;;;;;;;;;;;;;;;2078403;28;19913;-78
2023/10/16 03:16:23;;;;;;;;;;;;;;;;;;2080066;28;19905;-79
2023/10/16 03:17:41;;;;;;;;;;;;;;;;;;2073837;28;20338;-79
2023/10/16 03:19:09;;;;;;;;;;;;;;;;;;2073497;28;19909;-79
2023/10/16 03:20:37;;;;;;;;;;;;;;;;;;2079277;28;20342;-78
2023/10/16 03:21:56;;;;;;;;;;;;;;;;;;2072936;28;20007;-79
2023/10/16 03:23:18;;;;;;;;;;;;;;;;;;2072566;28;19909;-78
2023/10/16 03:24:37;;;;;;;;;;;;;;;;;;2076836;28;20378;-79
2023/10/16 03:25:59;;;;;;;;;;;;;;;;;;2074306;28;20397;-78
2023/10/16 03:27:28;;;;;;;;;;;;;;;;;;2071349;28;20604;-78
2023/10/16 03:28:47;;;;;;;;;;;;;;;;;;2078518;28;19984;-78
2023/10/16 03:30:06;;;;;;;;;;;;;;;;;;2079489;28;19913;-78
2023/10/16 03:31:25;;;;;;;;;;;;;;;;;;2073511;28;19909;-78
2023/10/16 03:32:44;;;;;;;;;;;;;;;;;;2076544;28;19909;-79
2023/10/16 03:34:03;;;;;;;;;;;;;;;;;;2072495;28;20034;-78
2023/10/16 03:35:26;;;;;;;;;;;;;;;;;;2075275;28;19910;-78
2023/10/16 03:36:49;;;;;;;;;;;;;;;;;;2077591;28;19909;-80
2023/10/16 03:38:11;;;;;;;;;;;;;;;;;;2072555;28;19914;-78
2023/10/16 03:39:29;;;;;;;;;;;;;;;;;;2076392;28;19909;-78
2023/10/16 03:40:51;;;;;;;;;;;;;;;;;;2074793;28;19913;-79
2023/10/16 03:42:10;;;;;;;;;;;;;;;;;;2074234;28;20008;-79
2023/10/16 03:43:29;;;;;;;;;;;;;;;;;;2078852;28;19909;-78
2023/10/16 03:44:48;;;;;;;;;;;;;;;;;;2079835;28;19905;-78
2023/10/16 03:46:07;;;;;;;;;;;;;;;;;;2073628;28;19913;-78
2023/10/16 03:47:26;;;;;;;;;;;;;;;;;;2077363;28;20362;-78
2023/10/16 03:48:45;;;;;;;;;;;;;;;;;;2075214;28;19996;-78
2023/10/16 03:50:04;;;;;;;;;;;;;;;;;;2073799;28;19917;-79
2023/10/16 03:51:23;;;;;;;;;;;;;;;;;;2074359;28;19909;-79
2023/10/16 03:52:41;;;;;;;;;;;;;;;;;;2080163;28;19906;-79
2023/10/16 03:54:02;;;;;;;;;;;;;;;;;;2075431;28;19913;-79
2023/10/16 03:55:25;;;;;;;;;;;;;;;;;;2074443;28;19905;-78
2023/10/16 03:56:44;;;;;;;;;;;;;;;;;;2078237;28;19909;-79
2023/10/16 03:58:03;;;;;;;;;;;;;;;;;;2081117;28;19917;-80
2023/10/16 03:59:22;;;;;;;;;;;;;;;;;;2074776;28;19909;-78
2023/10/16 04:00:52;;;;;;;;;;;;;;;;;;2075140;28;19951;-79
2023/10/16 04:02:19;;;;;;;;;;;;;;;;;;2078098;28;19913;-79
2023/10/16 04:03:47;;;;;;;;;;;;;;;;;;2077331;28;19912;-79
2023/10/16 04:05:25;;;;;;;;;;;;;;;;;;2077072;28;19928;-79
2023/10/16 04:06:44;;;;;;;;;;;;;;;;;;2074805;28;19917;-79
2023/10/16 04:08:03;;;;;;;;;;;;;;;;;;2069365;28;19914;-79
2023/10/16 04:09:21;;;;;;;;;;;;;;;;;;2070594;28;19905;-79
2023/10/16 04:10:43;;;;;;;;;;;;;;;;;;2079572;28;21614;-78
2023/10/16 04:12:06;;;;;;;;;;;;;;;;;;2081235;28;19909;-78
2023/10/16 04:13:31;;;;;;;;;;;;;;;;;;2074440;28;19909;-79
2023/10/16 04:14:55;;;;;;;;;;;;;;;;;;2079192;28;20321;-78
2023/10/16 04:16:25;;;;;;;;;;;;;;;;;;2073068;28;20282;-81
2023/10/16 04:17:46;;;;;;;;;;;;;;;;;;2081285;28;19992;-79
2023/10/16 04:20:43;;;;;;;;;;;;;;;;;;2078387;28;20020;-79
2023/10/16 04:22:16;;;;;;;;;;;;;;;;;;2080454;28;20363;-78
2023/10/16 04:25:17;;;;;;;;;;;;;;;;;;2079586;28;19921;-79
2023/10/16 04:26:47;;;;;;;;;;;;;;;;;;2072821;28;19913;-79
2023/10/16 04:28:18;;;;;;;;;;;;;;;;;;2075859;28;20957;-79
2023/10/16 04:29:49;;;;;;;;;;;;;;;;;;2081784;28;19955;-78
2023/10/16 04:31:31;;;;;;;;;;;;;;;;;;2082377;28;20007;-78
2023/10/16 04:32:56;;;;;;;;;;;;;;;;;;2080392;28;19905;-79
2023/10/16 04:34:31;;;;;;;;;;;;;;;;;;2081559;28;19905;-79
2023/10/16 04:38:53;;;;;;;;;;;;;;;;;;2083103;28;19909;-79
2023/10/16 04:43:16;;;;;;;;;;;;;;;;;;2090072;28;19913;-78
2023/10/16 04:45:00;;;;;;;;;;;;;;;;;;2086790;28;20389;-81
2023/10/16 04:46:32;;;;;;;;;;;;;;;;;;2083778;28;19953;-81
2023/10/16 04:49:28;;;;;;;;;;;;;;;;;;2084504;28;19972;-79
2023/10/16 04:51:01;;;;;;;;;;;;;;;;;;2081275;28;19913;-81
2023/10/16 04:52:37;;;;;;;;;;;;;;;;;;2076169;28;19996;-77
2023/10/16 04:54:13;;;;;;;;;;;;;;;;;;2082056;28;19998;-78
2023/10/16 05:00:00;;;;;;;;;;;;;;;;;;2079793;28;19905;-77
2023/10/16 05:01:33;;;;;;;;;;;;;;;;;;2072634;28;19909;-77
2023/10/16 05:02:52;;;;;;;;;;;;;;;;;;2076314;28;19909;-77
2023/10/16 05:04:34;;;;;;;;;;;;;;;;;;2077589;28;20146;-78
2023/10/16 05:07:52;;;;;;;;;;;;;;;;;;2080312;28;20317;-77
2023/10/16 05:11:23;;;;;;;;;;;;;;;;;;2079302;28;19968;-77
2023/10/16 05:14:28;;;;;;;;;;;;;;;;;;2075405;28;19913;-76
2023/10/16 06:14:36;;;;;;;;;;;;;;;;;;2081402;28;19909;-78
2023/10/16 06:15:55;;;;;;;;;;;;;;;;;;2074119;28;19917;-78
2023/10/16 06:17:17;;;;;;;;;;;;;;;;;;2073628;28;20000;-79
2023/10/16 06:18:36;;;;;;;;;;;;;;;;;;2078228;28;20820;-79
2023/10/16 06:19:57;;;;;;;;;;;;;;;;;;2079289;28;19913;-78
2023/10/16 06:21:15;;;;;;;;;;;;;;;;;;2081519;28;20000;-79
2023/10/16 06:22:34;;;;;;;;;;;;;;;;;;2074953;28;19905;-78
2023/10/16 06:23:53;;;;;;;;;;;;;;;;;;2074129;28;20282;-79
2023/10/16 06:25:12;;;;;;;;;;;;;;;;;;2079034;28;19909;-78
2023/10/16 06:26:31;;;;;;;;;;;;;;;;;;2081388;28;19915;-79
2023/10/16 06:27:50;;;;;;;;;;;;;;;;;;2074917;28;19905;-78
2023/10/16 06:29:11;;;;;;;;;;;;;;;;;;2074249;28;19909;-79
2023/10/16 06:30:30;;;;;;;;;;;;;;;;;;2070086;28;19906;-78
2023/10/16 06:31:49;;;;;;;;;;;;;;;;;;2077942;28;19968;-79
2023/10/16 06:33:08;;;;;;;;;;;;;;;;;;2073496;28;19906;-79
2023/10/16 06:34:27;;;;;;;;;;;;;;;;;;2078687;28;19905;-78
2023/10/16 06:35:47;;;;;;;;;;;;;;;;;;2080792;28;20003;-78
2023/10/16 06:37:06;;;;;;;;;;;;;;;;;;2081613;28;19905;-78
2023/10/16 06:38:25;;;;;;;;;;;;;;;;;;2076281;28;19909;-78
2023/10/16 06:39:44;;;;;;;;;;;;;;;;;;2076536;28;19906;-78
2023/10/16 06:41:03;;;;;;;;;;;;;;;;;;2075667;28;20004;-79
2023/10/16 06:42:22;;;;;;;;;;;;;;;;;;2078947;28;19985;-78
2023/10/16 06:43:41;;;;;;;;;;;;;;;;;;2080612;28;20355;-78
2023/10/16 06:45:07;;;;;;;;;;;;;;;;;;2074137;28;19905;-78
2023/10/16 06:46:26;;;;;;;;;;;;;;;;;;2079665;28;20009;-78
2023/10/16 06:47:48;;;;;;;;;;;;;;;;;;2076431;28;20318;-78
2023/10/16 06:49:09;;;;;;;;;;;;;;;;;;2074978;28;19917;-78
2023/10/16 06:50:41;;;;;;;;;;;;;;;;;;2079443;28;19905;-78
2023/10/16 06:52:02;;;;;;;;;;;;;;;;;;2080304;28;19905;-79
2023/10/16 06:53:22;;;;;;;;;;;;;;;;;;2080108;28;19913;-79
2023/10/16 06:54:41;;;;;;;;;;;;;;;;;;2079545;28;19909;-79
2023/10/16 06:56:00;;;;;;;;;;;;;;;;;;2076201;28;19988;-78
2023/10/16 06:57:19;;;;;;;;;;;;;;;;;;2076183;28;19909;-78
2023/10/16 06:58:40;;;;;;;;;;;;;;;;;;2079160;28;19909;-79
2023/10/16 06:59:59;;;;;;;;;;;;;;;;;;2080722;28;19905;-79
2023/10/16 07:01:19;;;;;;;;;;;;;;;;;;2076091;28;19909;-79
2023/10/16 07:02:37;;;;;;;;;;;;;;;;;;2077115;28;20265;-80
2023/10/16 07:03:57;;;;;;;;;;;;;;;;;;2081047;28;19913;-79
2023/10/16 07:05:19;;;;;;;;;;;;;;;;;;2074646;28;19913;-79
2023/10/16 07:06:38;;;;;;;;;;;;;;;;;;2074044;28;19945;-79
2023/10/16 07:07:59;;;;;;;;;;;;;;;;;;2078702;28;20394;-79
2023/10/16 07:09:18;;;;;;;;;;;;;;;;;;2081115;28;19909;-79
2023/10/16 07:10:40;;;;;;;;;;;;;;;;;;2075695;28;19909;-79
2023/10/16 07:12:03;;;;;;;;;;;;;;;;;;2079993;28;19905;-79
2023/10/16 07:13:28;;;;;;;;;;;;;;;;;;2073823;28;19928;-79
2023/10/16 07:14:55;;;;;;;;;;;;;;;;;;2078680;28;19999;-79
2023/10/16 07:16:15;;;;;;;;;;;;;;;;;;2074978;28;20302;-78
2023/10/16 07:17:34;;;;;;;;;;;;;;;;;;2078730;28;19909;-78
2023/10/16 07:18:57;;;;;;;;;;;;;;;;;;2075986;28;19905;-78
2023/10/16 07:20:27;;;;;;;;;;;;;;;;;;2079251;28;19905;-78
2023/10/16 07:21:48;;;;;;;;;;;;;;;;;;2075831;28;19925;-78
2023/10/16 07:23:10;;;;;;;;;;;;;;;;;;2077764;28;19913;-78
2023/10/16 07:24:34;;;;;;;;;;;;;;;;;;2074863;28;20004;-78
2023/10/16 07:25:57;;;;;;;;;;;;;;;;;;2080684;28;19905;-78
2023/10/16 07:27:17;;;;;;;;;;;;;;;;;;2075764;28;19909;-78
2023/10/16 07:28:36;;;;;;;;;;;;;;;;;;2075810;28;19905;-78
2023/10/16 07:29:55;;;;;;;;;;;;;;;;;;2079216;28;19905;-78
2023/10/16 07:31:16;;;;;;;;;;;;;;;;;;2080612;28;19909;-78
2023/10/16 07:32:34;;;;;;;;;;;;;;;;;;2075253;28;19905;-79
2023/10/16 07:33:59;;;;;;;;;;;;;;;;;;2071959;28;19906;-79
2023/10/16 07:35:21;;;;;;;;;;;;;;;;;;2079423;28;20349;-78
2023/10/16 07:36:40;;;;;;;;;;;;;;;;;;2081043;28;19912;-78
2023/10/16 07:37:59;;;;;;;;;;;;;;;;;;2081206;28;19905;-78
2023/10/16 07:39:18;;;;;;;;;;;;;;;;;;2075185;28;19905;-78
2023/10/16 07:40:39;;;;;;;;;;;;;;;;;;2074896;28;19909;-78
2023/10/16 07:41:59;;;;;;;;;;;;;;;;;;2079564;28;20106;-79
2023/10/16 07:43:26;;;;;;;;;;;;;;;;;;2075518;28;19909;-78
2023/10/16 07:44:45;;;;;;;;;;;;;;;;;;2078529;28;19905;-78
2023/10/16 07:46:50;;;;;;;;;;;;;;;;;;2080588;28;20011;-78
2023/10/16 07:47:51;;;;;;;;;;;;;;;;;;2080433;28;20366;-78
2023/10/16 07:49:10;;;;;;;;;;;;;;;;;;2080279;28;20338;-78
2023/10/16 07:50:30;;;;;;;;;;;;;;;;;;2081344;28;19909;-79
2023/10/16 07:51:52;;;;;;;;;;;;;;;;;;2081001;28;19909;-78
2023/10/16 07:53:17;;;;;;;;;;;;;;;;;;2080248;28;19905;-78
2023/10/16 07:54:36;;;;;;;;;;;;;;;;;;2079543;28;19906;-78
2023/10/16 07:55:56;;;;;;;;;;;;;;;;;;2080270;28;20261;-78
2023/10/16 07:57:17;;;;;;;;;;;;;;;;;;2080716;28;19920;-78
2023/10/16 07:58:47;;;;;;;;;;;;;;;;;;2082212;28;19905;-79
2023/10/16 08:00:13;;;;;;;;;;;;;;;;;;2076633;28;19953;-78
2023/10/16 08:01:36;;;;;;;;;;;;;;;;;;2081242;28;19909;-78
2023/10/16 08:03:04;;;;;;;;;;;;;;;;;;2076370;28;19905;-79
2023/10/16 08:05:47;;;;;;;;;;;;;;;;;;2082825;28;20285;-78
2023/10/16 08:07:08;;;;;;;;;;;;;;;;;;2082470;28;20452;-79
2023/10/16 08:08:35;;;;;;;;;;;;;;;;;;2080926;28;19941;-80
2023/10/16 08:10:28;;;;;;;;;;;;;;;;;;2077693;28;19906;-78
2023/10/16 08:11:42;;;;;;;;;;;;;;;;;;2081814;28;19909;-79
2023/10/16 08:13:11;;;;;;;;;;;;;;;;;;2077073;28;19991;-78
2023/10/16 08:14:32;;;;;;;;;;;;;;;;;;2076261;28;19909;-78
2023/10/16 08:15:51;;;;;;;;;;;;;;;;;;2083020;28;20307;-78
2023/10/16 08:17:17;;;;;;;;;;;;;;;;;;2084149;28;19905;-78
2023/10/16 08:18:36;;;;;;;;;;;;;;;;;;2085592;28;19909;-78
2023/10/16 08:19:55;;;;;;;;;;;;;;;;;;2086052;28;19972;-79
2023/10/16 08:21:23;;;;;;;;;;;;;;;;;;2088656;28;19925;-79
2023/10/16 08:22:46;;;;;;;;;;;;;;;;;;2085550;28;19925;-79
2023/10/16 08:24:05;;;;;;;;;;;;;;;;;;2090549;28;19908;-79
2023/10/16 08:25:31;;;;;;;;;;;;;;;;;;2091485;28;19965;-78
2023/10/16 08:26:50;;;;;;;;;;;;;;;;;;2090257;28;19905;-78
2023/10/16 08:28:35;;;;;;;;;;;;;;;;;;2085187;28;19901;-79
2023/10/16 08:29:54;;;;;;;;;;;;;;;;;;2086545;28;19912;-79
2023/10/16 08:31:25;;;;;;;;;;;;;;;;;;2077542;28;19917;-79
2023/10/16 08:32:53;;;;;;;;;;;;;;;;;;2078082;28;19905;-80
2023/10/16 08:34:11;;;;;;;;;;;;;;;;;;2082288;28;19905;-79
2023/10/16 08:35:38;;;;;;;;;;;;;;;;;;2077807;28;20378;-78
2023/10/16 08:36:58;;;;;;;;;;;;;;;;;;2077334;28;19917;-78
2023/10/16 08:38:20;;;;;;;;;;;;;;;;;;2079988;28;19905;-78
2023/10/16 08:39:47;;;;;;;;;;;;;;;;;;2076648;28;20350;-78
2023/10/16 08:41:07;;;;;;;;;;;;;;;;;;2081335;28;19913;-79
2023/10/16 08:42:26;;;;;;;;;;;;;;;;;;2082709;28;20039;-78
2023/10/16 08:43:54;;;;;;;;;;;;;;;;;;2082309;28;19905;-78
2023/10/16 08:45:23;;;;;;;;;;;;;;;;;;2082420;28;20255;-79
2023/10/16 08:46:45;;;;;;;;;;;;;;;;;;2076397;28;20551;-79
2023/10/16 08:48:07;;;;;;;;;;;;;;;;;;2073494;28;20370;-79
2023/10/16 08:49:26;;;;;;;;;;;;;;;;;;2073476;28;19913;-78
2023/10/16 08:50:52;;;;;;;;;;;;;;;;;;2080392;28;19913;-79
2023/10/16 08:52:17;;;;;;;;;;;;;;;;;;2075714;28;19905;-79
2023/10/16 08:53:36;;;;;;;;;;;;;;;;;;2079770;28;19913;-79
2023/10/16 08:55:01;;;;;;;;;;;;;;;;;;2075764;28;19952;-79
2023/10/16 08:56:23;;;;;;;;;;;;;;;;;;2080617;28;19905;-79
2023/10/16 08:57:42;;;;;;;;;;;;;;;;;;2082769;28;19909;-79
2023/10/16 08:59:01;;;;;;;;;;;;;;;;;;2082891;28;19952;-79
2023/10/16 09:00:22;;;;;;;;;;;;;;;;;;2081783;28;19909;-80
2023/10/16 09:01:41;;;;;;;;;;;;;;;;;;2081783;28;19913;-78
2023/10/16 09:03:00;;;;;;;;;;;;;;;;;;2081471;28;19951;-78
2023/10/16 09:04:20;;;;;;;;;;;;;;;;;;2076729;28;19913;-78
2023/10/16 09:05:43;;;;;;;;;;;;;;;;;;2080043;28;20000;-78
2023/10/16 09:07:02;;;;;;;;;;;;;;;;;;2081767;28;19909;-78
2023/10/16 09:08:21;;;;;;;;;;;;;;;;;;2074483;28;19905;-78
2023/10/16 09:09:41;;;;;;;;;;;;;;;;;;2078652;28;20246;-79
2023/10/16 09:11:06;;;;;;;;;;;;;;;;;;2082099;28;20296;-78
2023/10/16 09:12:27;;;;;;;;;;;;;;;;;;2075744;28;19905;-79
2023/10/16 09:13:51;;;;;;;;;;;;;;;;;;2075959;28;20847;-79
2023/10/16 09:15:09;;;;;;;;;;;;;;;;;;2080266;28;19905;-79
2023/10/16 09:16:31;;;;;;;;;;;;;;;;;;2082214;28;19905;-79
2023/10/16 09:17:50;;;;;;;;;;;;;;;;;;2076271;28;19909;-79
2023/10/16 09:19:08;;;;;;;;;;;;;;;;;;2075802;28;19915;-80
2023/10/16 09:20:40;;;;;;;;;;;;;;;;;;2080085;28;19909;-79
2023/10/16 09:22:00;;;;;;;;;;;;;;;;;;2076271;28;19913;-79
2023/10/16 09:23:23;;;;;;;;;;;;;;;;;;2075492;28;19917;-80
2023/10/16 09:24:46;;;;;;;;;;;;;;;;;;2079053;28;20080;-81
2023/10/16 09:26:09;;;;;;;;;;;;;;;;;;2081987;28;19908;-81
2023/10/16 09:27:31;;;;;;;;;;;;;;;;;;2081564;28;19980;-79
2023/10/16 09:28:53;;;;;;;;;;;;;;;;;;2081203;28;19905;-79
2023/10/16 09:30:15;;;;;;;;;;;;;;;;;;2075964;28;19960;-79
2023/10/16 09:31:34;;;;;;;;;;;;;;;;;;2074781;28;19913;-79
2023/10/16 09:32:54;;;;;;;;;;;;;;;;;;2077933;28;19971;-79
2023/10/16 09:34:14;;;;;;;;;;;;;;;;;;2081349;28;19936;-80
2023/10/16 09:35:33;;;;;;;;;;;;;;;;;;2082011;28;19909;-80
2023/10/16 09:38:33;;;;;;;;;;;;;;;;;;2081050;28;20363;-79
2023/10/16 09:39:52;;;;;;;;;;;;;;;;;;2077008;28;20434;-81
2023/10/16 09:42:45;;;;;;;;;;;;;;;;;;2079699;28;19909;-80
2023/10/16 09:44:21;;;;;;;;;;;;;;;;;;2075210;28;19913;-81
2023/10/16 09:45:41;;;;;;;;;;;;;;;;;;2075918;28;19905;-80
2023/10/16 09:46:59;;;;;;;;;;;;;;;;;;2073676;28;19996;-80
2023/10/16 09:48:21;;;;;;;;;;;;;;;;;;2073724;28;19905;-82
2023/10/16 09:49:40;;;;;;;;;;;;;;;;;;2078999;28;19909;-80
2023/10/16 09:50:59;;;;;;;;;;;;;;;;;;2075541;28;20313;-82
2023/10/16 09:52:20;;;;;;;;;;;;;;;;;;2072849;28;20286;-79
2023/10/16 09:53:39;;;;;;;;;;;;;;;;;;2081857;28;19987;-79
2023/10/16 09:55:05;;;;;;;;;;;;;;;;;;2081270;28;19917;-80
2023/10/16 09:56:23;;;;;;;;;;;;;;;;;;2076202;28;20330;-81
2023/10/16 09:57:42;;;;;;;;;;;;;;;;;;2073085;28;19905;-82
2023/10/16 09:59:03;;;;;;;;;;;;;;;;;;2077906;28;19913;-85
2023/10/16 10:00:29;;;;;;;;;;;;;;;;;;2075022;28;19909;-79
2023/10/16 10:01:51;;;;;;;;;;;;;;;;;;2070200;28;19905;-80
2023/10/16 10:03:13;;;;;;;;;;;;;;;;;;2070209;28;19909;-79
2023/10/16 10:04:35;;;;;;;;;;;;;;;;;;2080835;28;19905;-81
2023/10/16 10:07:18;;;;;;;;;;;;;;;;;;2079797;28;19905;-79
2023/10/16 10:13:34;;;;;;;;;;;;;;;;;;2081148;28;20266;-81
2023/10/16 10:15:01;;;;;;;;;;;;;;;;;;2075148;28;19913;-78
2023/10/16 10:16:20;;;;;;;;;;;;;;;;;;2076165;28;20469;-78
2023/10/16 10:17:39;;;;;;;;;;;;;;;;;;2079039;28;20401;-79
2023/10/16 10:19:01;;;;;;;;;;;;;;;;;;2077428;28;20003;-76
2023/10/16 10:20:26;;;;;;;;;;;;;;;;;;2072742;28;19948;-78
2023/10/16 10:21:46;;;;;;;;;;;;;;;;;;2077057;28;19912;-76
2023/10/16 10:23:05;;;;;;;;;;;;;;;;;;2074983;28;19904;-77
2023/10/16 10:24:23;;;;;;;;;;;;;;;;;;2073032;28;19908;-77
2023/10/16 10:25:45;;;;;;;;;;;;;;;;;;2077665;28;19905;-82
2023/10/16 10:27:04;;;;;;;;;;;;;;;;;;2075374;28;19905;-81
2023/10/16 10:28:36;;;;;;;;;;;;;;;;;;2073811;28;19905;-87
2023/10/16 10:29:55;;;;;;;;;;;;;;;;;;2078678;28;19905;-82
2023/10/16 10:31:14;;;;;;;;;;;;;;;;;;2073522;28;20382;-83
2023/10/16 10:32:33;;;;;;;;;;;;;;;;;;2079836;28;20088;-87
2023/10/16 10:34:08;;;;;;;;;;;;;;;;;;2075141;28;19905;-86
2023/10/16 10:35:30;;;;;;;;;;;;;;;;;;2083574;28;19913;-84
2023/10/16 10:36:49;;;;;;;;;;;;;;;;;;2082586;28;20343;-86
2023/10/16 10:38:17;;;;;;;;;;;;;;;;;;2074407;28;19909;-85
2023/10/16 10:39:38;;;;;;;;;;;;;;;;;;2079567;28;19995;-88
2023/10/16 10:41:06;;;;;;;;;;;;;;;;;;2075840;28;19996;-84
2023/10/16 10:42:25;;;;;;;;;;;;;;;;;;2080595;28;20352;-84
2023/10/16 10:43:50;;;;;;;;;;;;;;;;;;2075246;28;19905;-90
2023/10/16 10:45:17;;;;;;;;;;;;;;;;;;2073758;28;19913;-86
2023/10/16 10:46:37;;;;;;;;;;;;;;;;;;2075278;28;20599;-79
2023/10/16 10:47:56;;;;;;;;;;;;;;;;;;2071158;28;19956;-80
2023/10/16 10:49:16;;;;;;;;;;;;;;;;;;2078072;28;19905;-81
2023/10/16 10:50:34;;;;;;;;;;;;;;;;;;2074105;28;19913;-77
2023/10/16 10:51:56;;;;;;;;;;;;;;;;;;2072746;28;20324;-84